Aeroporto :
LOGIN :

Iscrizione | Disclaimer

   EN    FR    IT 

 










Sommario :    VFR   VFR Marginale   IFR   IFR Intensivo   IFR Molto Intensivo
Visibilità : 
Base nubi : 
>= 8 km
>= 3000ft
5 / 8 km
1000 / 3000 ft
1500m / 5 km
500 / 1000 ft
800 / 1500m
200 / 500 ft
< 800m
< 200 ft
Simboli :   Temporali  Nebbia  Neve Forte  Precipitazioni Forti  Vento > 20 kt
SIGMETs :   Varie  Temporali  Ghiacco  Turbolenza  Onda orograficha  Ceneri Vulcaniche






- Altitudine del aeroporto : 53 ft
- Codice IATA : LBC


EDHL - Lübeck

ULTIMO METAR :
  • 071350Z VRB03KT CAVOK 17/01 Q1032

METARs OBSOLETI :
  • 071320Z VRB04KT CAVOK 17/M00 Q1032
  • 071250Z VRB04KT CAVOK 17/01 Q1032
  • 071220Z VRB05KT CAVOK 16/M00 Q1032
  • 071150Z VRB04KT CAVOK 16/01 Q1032
  • 071120Z VRB04KT CAVOK 16/01 Q1032

TAF TAF EDHL
Valido dal 07 a 12 ore il 07 a 21 ore UTC


071109Z 0712/0721 30005KT CAVOK
BECMG 0713/0715 01005KT
BECMG 0715/0717 07004KT



MetMap, La meteo Aeronautica in un colpo d'occhio ! - Copyright ORBIFLY Dicembre 2007 - Disclaimer

ORBIFLY MET'MAP TEAM :

Programmazione e sviluppo : Alexandra Zaïnal
Concezione : Baudouin d'Aumeries
Aiuto per la programmazione : Marc-Olivier Méhu
Supporto tecnico e logistico : Manuel Goepfert
Aiuto per la traduzione : Arnaldo La Scala

Contatto : metmap@orbifly.com




FONTI E CREDITI :

   NOAA